Time;durP1;ratioP1;P1;durP2;ratioP2;P2;SDS_P1;SDS_P2;PMS_P1;PMS_P2;Temp;Humidity;BMP_temperature;BMP_pressure;BME280_temperature;BME280_humidity;BME280_pressure;Samples;Min_cycle;Max_cycle;Signal;HPM_P1;HPM_P2
2022/03/26 00:00:22;;;;;;;7.35;4.57;;;21.90;44.50;;;;;;4993781;28;20026;-74
2022/03/26 00:02:49;;;;;;;8.20;4.82;;;21.90;44.50;;;;;;5011253;28;20021;-74
2022/03/26 00:05:18;;;;;;;7.95;4.90;;;21.90;44.50;;;;;;5010237;28;20026;-74
2022/03/26 00:07:44;;;;;;;6.97;4.67;;;21.90;44.50;;;;;;5011373;28;20041;-74
2022/03/26 00:10:11;;;;;;;7.47;4.93;;;21.90;44.50;;;;;;5010286;28;20500;-74
2022/03/26 00:12:37;;;;;;;6.95;4.97;;;21.90;44.50;;;;;;5010977;28;20068;-74
2022/03/26 00:15:04;;;;;;;7.75;4.82;;;21.90;44.50;;;;;;4993593;28;20474;-74
2022/03/26 00:17:31;;;;;;;6.97;4.45;;;21.90;44.50;;;;;;4993666;28;20033;-74
2022/03/26 00:19:57;;;;;;;7.90;4.70;;;21.90;44.50;;;;;;4993782;28;20029;-74
2022/03/26 00:22:23;;;;;;;8.93;4.80;;;21.90;44.50;;;;;;5010896;28;20034;-74
2022/03/26 00:24:48;;;;;;;8.35;4.80;;;21.90;44.50;;;;;;5011517;28;20028;-73
2022/03/26 00:27:15;;;;;;;7.10;4.70;;;21.90;44.50;;;;;;4993846;28;20108;-73
2022/03/26 00:29:41;;;;;;;6.95;4.40;;;21.90;44.50;;;;;;4993488;28;20554;-73
2022/03/26 00:32:07;;;;;;;6.82;4.50;;;21.90;45.10;;;;;;5010008;28;20109;-74
2022/03/26 00:34:33;;;;;;;7.32;4.80;;;21.90;44.50;;;;;;5009833;28;20041;-73
2022/03/26 00:37:00;;;;;;;6.55;4.80;;;21.90;44.50;;;;;;5010940;28;20033;-73
2022/03/26 00:39:26;;;;;;;6.75;4.22;;;21.90;44.50;;;;;;4993082;28;20129;-73
2022/03/26 00:41:51;;;;;;;8.25;4.38;;;21.90;44.50;;;;;;4993343;28;20482;-74
2022/03/26 00:44:17;;;;;;;8.55;4.85;;;21.90;44.50;;;;;;4994890;28;20084;-73
2022/03/26 00:46:47;;;;;;;7.03;4.70;;;21.90;44.50;;;;;;4997324;28;20045;-73
2022/03/26 00:49:14;;;;;;;7.50;4.85;;;21.90;44.60;;;;;;4997341;28;20041;-73
2022/03/26 00:51:40;;;;;;;6.05;4.22;;;21.90;44.60;;;;;;4997096;28;20729;-74
2022/03/26 00:54:08;;;;;;;6.88;4.97;;;21.90;44.50;;;;;;5014335;28;20077;-73
2022/03/26 00:56:35;;;;;;;7.32;4.63;;;21.90;44.50;;;;;;5014384;28;20104;-72
2022/03/26 00:59:00;;;;;;;6.93;4.50;;;21.90;44.60;;;;;;4997203;28;20029;-73
2022/03/26 01:01:26;;;;;;;8.23;5.20;;;21.90;44.60;;;;;;5014512;28;20394;-73
2022/03/26 01:03:52;;;;;;;7.60;4.63;;;21.90;44.60;;;;;;5013902;28;20026;-73
2022/03/26 01:06:18;;;;;;;6.50;4.75;;;21.90;44.60;;;;;;5014356;28;20022;-73
2022/03/26 01:08:44;;;;;;;6.60;4.53;;;21.90;44.60;;;;;;5014317;28;20478;-72
2022/03/26 01:11:10;;;;;;;7.25;4.60;;;21.90;44.60;;;;;;5014479;28;20041;-74
2022/03/26 01:13:38;;;;;;;8.07;4.75;;;21.90;44.50;;;;;;5012845;28;20133;-74
2022/03/26 01:16:05;;;;;;;7.32;4.88;;;21.90;44.50;;;;;;5014147;28;20057;-74
2022/03/26 01:18:31;;;;;;;7.80;4.80;;;21.90;44.50;;;;;;4996388;28;20463;-73
2022/03/26 01:20:57;;;;;;;7.68;4.70;;;21.90;44.50;;;;;;5012953;28;20044;-74
2022/03/26 01:23:23;;;;;;;6.97;4.85;;;21.90;44.50;;;;;;5012743;28;20022;-73
2022/03/26 01:25:49;;;;;;;7.45;4.63;;;21.90;44.50;;;;;;5014143;28;20570;-74
2022/03/26 01:28:15;;;;;;;6.43;4.55;;;21.90;44.50;;;;;;5013983;28;20317;-73
2022/03/26 01:30:41;;;;;;;7.85;4.68;;;21.90;44.50;;;;;;5012539;28;20037;-73
2022/03/26 01:33:07;;;;;;;8.07;4.63;;;21.90;44.50;;;;;;5013575;28;20030;-73
2022/03/26 01:35:32;;;;;;;6.53;4.63;;;21.90;44.50;;;;;;4996454;28;20122;-73
2022/03/26 01:38:04;;;;;;;7.82;4.88;;;21.90;44.60;;;;;;5013693;28;20032;-74
2022/03/26 01:40:30;;;;;;;7.57;4.72;;;21.90;44.50;;;;;;5013488;28;20037;-74
2022/03/26 01:42:56;;;;;;;6.95;4.30;;;21.90;44.50;;;;;;4995722;28;20088;-74
2022/03/26 01:45:22;;;;;;;7.63;5.00;;;21.90;44.50;;;;;;5013561;28;20105;-74
2022/03/26 01:47:47;;;;;;;7.70;4.85;;;21.90;44.50;;;;;;4996117;28;20042;-74
2022/03/26 01:50:13;;;;;;;7.05;4.65;;;21.90;44.50;;;;;;5013463;28;20379;-75
2022/03/26 01:52:39;;;;;;;7.60;4.68;;;21.90;44.50;;;;;;5013375;28;20455;-74
2022/03/26 01:55:05;;;;;;;7.00;4.53;;;21.90;44.50;;;;;;4995653;28;20026;-75
2022/03/26 01:57:31;;;;;;;8.73;4.80;;;21.90;44.50;;;;;;5013419;28;20030;-75
2022/03/26 01:59:58;;;;;;;6.68;4.70;;;21.90;44.40;;;;;;5013344;28;20457;-74
2022/03/26 02:02:25;;;;;;;8.13;4.75;;;21.90;44.50;;;;;;5013013;28;20025;-74
2022/03/26 02:04:51;;;;;;;6.88;4.53;;;21.90;44.50;;;;;;5013219;28;20022;-74
2022/03/26 02:07:18;;;;;;;7.22;4.38;;;21.90;44.50;;;;;;5012016;28;20375;-75
2022/03/26 02:09:43;;;;;;;6.97;4.68;;;21.90;44.50;;;;;;5013106;28;20113;-74
2022/03/26 02:12:26;;;;;;;6.45;4.35;;;21.90;44.50;;;;;;5013111;28;20116;-74
2022/03/26 02:14:53;;;;;;;6.55;4.50;;;21.90;44.50;;;;;;4996063;28;20037;-74
2022/03/26 02:17:19;;;;;;;6.55;4.38;;;21.80;44.50;;;;;;5013148;28;20030;-74
2022/03/26 02:19:52;;;;;;;7.30;4.60;;;21.90;44.50;;;;;;5013142;28;20359;-73
2022/03/26 02:22:18;;;;;;;7.47;4.63;;;21.90;44.60;;;;;;5012733;28;20026;-74
2022/03/26 02:24:43;;;;;;;6.35;4.15;;;21.90;44.50;;;;;;5012905;28;20064;-74
2022/03/26 02:27:09;;;;;;;5.90;4.00;;;21.90;44.50;;;;;;5012917;28;20093;-73
2022/03/26 02:29:35;;;;;;;7.45;4.80;;;21.90;44.50;;;;;;5012673;28;20030;-73
2022/03/26 02:32:01;;;;;;;5.97;4.22;;;21.90;44.50;;;;;;5012376;28;20030;-74
2022/03/26 02:34:27;;;;;;;6.57;4.43;;;21.90;44.50;;;;;;5013000;28;20026;-74
2022/03/26 02:36:57;;;;;;;6.90;4.65;;;21.90;44.50;;;;;;5012527;28;20498;-74
2022/03/26 02:39:23;;;;;;;7.63;4.63;;;21.90;44.50;;;;;;5012416;28;20124;-74
2022/03/26 02:41:48;;;;;;;6.60;4.43;;;21.90;44.50;;;;;;5012459;28;20058;-74
2022/03/26 02:44:14;;;;;;;9.52;4.53;;;21.90;44.50;;;;;;4994612;28;20036;-74
2022/03/26 02:46:40;;;;;;;8.10;4.63;;;21.90;44.50;;;;;;5012461;28;20080;-73
2022/03/26 02:49:05;;;;;;;7.25;4.60;;;21.90;44.50;;;;;;5012426;28;20033;-73
2022/03/26 02:51:31;;;;;;;7.57;4.45;;;21.90;44.50;;;;;;5012468;28;20022;-73
2022/03/26 02:53:57;;;;;;;6.25;4.70;;;21.90;44.50;;;;;;5012170;28;20022;-73
2022/03/26 02:56:22;;;;;;;8.00;4.93;;;21.90;44.50;;;;;;5012329;28;20022;-73
2022/03/26 02:58:48;;;;;;;5.75;4.30;;;21.90;45.10;;;;;;4994448;28;20033;-74
2022/03/26 03:01:14;;;;;;;8.30;4.60;;;21.90;44.50;;;;;;5011992;28;20022;-74
2022/03/26 03:03:40;;;;;;;6.22;4.38;;;21.90;44.50;;;;;;5012288;28;20030;-73
2022/03/26 03:06:06;;;;;;;7.15;4.65;;;21.90;44.50;;;;;;5011593;28;20106;-73
2022/03/26 03:08:33;;;;;;;5.97;4.10;;;21.90;44.50;;;;;;5011886;28;20109;-73
2022/03/26 03:10:59;;;;;;;7.18;4.30;;;21.80;44.50;;;;;;5012100;28;20081;-73
2022/03/26 03:13:25;;;;;;;7.07;4.93;;;21.90;44.50;;;;;;4994300;28;20065;-73
2022/03/26 03:15:51;;;;;;;7.03;4.88;;;21.90;44.50;;;;;;4994469;28;20109;-74
2022/03/26 03:18:18;;;;;;;6.43;4.10;;;21.90;44.50;;;;;;5011761;28;20034;-74
2022/03/26 03:20:44;;;;;;;8.50;4.45;;;21.90;44.50;;;;;;5012242;28;20094;-74
2022/03/26 03:23:11;;;;;;;7.53;4.50;;;21.80;44.50;;;;;;4993847;28;20036;-74
2022/03/26 03:25:36;;;;;;;7.32;4.32;;;21.80;44.40;;;;;;5011825;28;20030;-74
2022/03/26 03:28:02;;;;;;;6.75;4.40;;;21.90;44.50;;;;;;5011646;28;20113;-74
2022/03/26 03:30:28;;;;;;;6.65;4.68;;;21.90;44.50;;;;;;5012113;28;20076;-73
2022/03/26 03:32:54;;;;;;;6.80;4.47;;;21.90;44.50;;;;;;5011785;28;20025;-73
2022/03/26 03:35:21;;;;;;;7.93;4.70;;;21.90;44.50;;;;;;5011728;28;20505;-74
2022/03/26 03:37:46;;;;;;;6.85;4.72;;;21.90;44.50;;;;;;5011702;28;20517;-74
2022/03/26 03:40:13;;;;;;;7.05;4.40;;;21.90;44.40;;;;;;5011404;28;20026;-74
2022/03/26 03:42:39;;;;;;;6.30;4.50;;;21.90;44.50;;;;;;5011108;28;20495;-74
2022/03/26 03:45:06;;;;;;;7.22;4.63;;;21.90;44.50;;;;;;5011540;28;20076;-74
2022/03/26 03:47:31;;;;;;;5.80;4.15;;;21.90;44.40;;;;;;5011449;28;20115;-74
2022/03/26 03:49:57;;;;;;;6.28;4.38;;;21.90;44.40;;;;;;5011490;28;20064;-74
2022/03/26 03:52:23;;;;;;;6.15;4.40;;;21.90;44.50;;;;;;5011296;28;20441;-74
2022/03/26 03:54:49;;;;;;;6.65;4.18;;;21.90;44.50;;;;;;5011635;28;20025;-74
2022/03/26 03:57:14;;;;;;;7.30;4.80;;;21.90;44.50;;;;;;5011352;28;20525;-74
2022/03/26 03:59:41;;;;;;;6.63;4.15;;;21.90;44.50;;;;;;5011602;28;20079;-74
2022/03/26 04:02:11;;;;;;;5.32;4.07;;;21.90;44.50;;;;;;4993472;28;20018;-74
2022/03/26 04:04:39;;;;;;;7.40;4.40;;;21.90;44.40;;;;;;5010314;28;20036;-74
2022/03/26 04:07:05;;;;;;;7.15;4.70;;;21.80;44.40;;;;;;5011402;28;20033;-74
2022/03/26 04:09:30;;;;;;;7.28;4.20;;;21.90;44.50;;;;;;5011143;28;20592;-74
2022/03/26 04:11:56;;;;;;;7.78;4.70;;;21.80;44.40;;;;;;5011236;28;20022;-74
2022/03/26 04:14:22;;;;;;;6.45;4.38;;;21.80;44.40;;;;;;5011554;28;20080;-74
2022/03/26 04:16:47;;;;;;;6.97;4.53;;;21.80;44.40;;;;;;5011099;28;20120;-74
2022/03/26 04:19:13;;;;;;;11.52;4.30;;;21.80;44.40;;;;;;5012831;28;20412;-74
2022/03/26 04:21:39;;;;;;;7.43;4.50;;;21.80;44.40;;;;;;5014898;28;20437;-74
2022/03/26 04:24:05;;;;;;;6.40;4.57;;;21.80;44.40;;;;;;5015262;28;20057;-74
2022/03/26 04:26:30;;;;;;;5.60;4.40;;;21.90;44.50;;;;;;5015011;28;20026;-74
2022/03/26 04:28:57;;;;;;;6.70;4.55;;;21.80;44.40;;;;;;5015067;28;20040;-74
2022/03/26 04:31:23;;;;;;;7.25;4.68;;;21.80;44.40;;;;;;5013816;28;20079;-75
2022/03/26 04:33:48;;;;;;;7.78;4.60;;;21.80;44.40;;;;;;5014745;28;20397;-75
2022/03/26 04:36:14;;;;;;;7.03;4.28;;;21.80;44.70;;;;;;5014963;28;20037;-74
2022/03/26 04:38:40;;;;;;;5.82;4.22;;;21.80;44.40;;;;;;5029146;23;20022;-71
2022/03/26 04:41:07;;;;;;;7.63;4.45;;;21.90;44.50;;;;;;5016456;28;20025;-71
2022/03/26 04:43:32;;;;;;;8.13;4.55;;;21.80;44.40;;;;;;5015839;28;20030;-72
2022/03/26 04:45:58;;;;;;;8.55;4.95;;;21.80;44.40;;;;;;5034531;28;20026;-71
2022/03/26 04:48:23;;;;;;;8.60;5.05;;;21.80;44.30;;;;;;5034504;28;20036;-71
2022/03/26 04:50:49;;;;;;;7.45;4.55;;;21.80;44.30;;;;;;5034449;28;20179;-72
2022/03/26 04:53:15;;;;;;;7.85;5.05;;;21.90;44.40;;;;;;5034096;28;20047;-71
2022/03/26 04:55:40;;;;;;;6.97;4.72;;;21.80;44.30;;;;;;5034689;28;20021;-71
2022/03/26 04:58:08;;;;;;;7.50;4.93;;;21.90;44.40;;;;;;5034080;28;20026;-72
2022/03/26 05:00:33;;;;;;;6.10;4.53;;;21.80;44.30;;;;;;5034153;28;20037;-71
2022/03/26 05:02:59;;;;;;;7.40;4.55;;;21.80;44.40;;;;;;5033882;28;20025;-71
2022/03/26 05:05:25;;;;;;;5.53;4.18;;;21.80;44.40;;;;;;5016655;28;20091;-71
2022/03/26 05:07:52;;;;;;;8.18;4.88;;;21.80;44.40;;;;;;5033865;28;20433;-72
2022/03/26 05:10:23;;;;;;;7.05;4.70;;;21.80;44.40;;;;;;5016305;28;20498;-71
2022/03/26 05:12:51;;;;;;;7.30;4.88;;;21.80;44.40;;;;;;5033647;28;20057;-71
2022/03/26 05:15:19;;;;;;;7.32;4.60;;;21.80;44.30;;;;;;5033997;28;20029;-72
2022/03/26 05:17:45;;;;;;;6.07;4.50;;;21.80;44.30;;;;;;5034033;28;20033;-71
2022/03/26 05:20:12;;;;;;;8.75;4.93;;;21.80;44.30;;;;;;5016221;28;20030;-72
2022/03/26 05:22:42;;;;;;;8.27;4.90;;;21.80;44.30;;;;;;5015954;28;20501;-71
2022/03/26 05:25:09;;;;;;;9.68;5.63;;;21.80;44.40;;;;;;5033753;28;20021;-72
2022/03/26 05:27:36;;;;;;;8.80;5.07;;;21.80;44.30;;;;;;5033749;28;20033;-71
2022/03/26 05:30:03;;;;;;;6.63;4.35;;;21.80;44.40;;;;;;5033229;28;20025;-71
2022/03/26 05:32:29;;;;;;;8.13;4.90;;;21.80;44.40;;;;;;5033291;28;20029;-71
2022/03/26 05:34:55;;;;;;;8.23;4.80;;;21.80;44.30;;;;;;5033547;28;20159;-72
2022/03/26 05:37:20;;;;;;;8.57;5.13;;;21.80;44.40;;;;;;5033644;28;20033;-71
2022/03/26 05:39:47;;;;;;;7.78;4.80;;;21.80;44.30;;;;;;5015756;28;20041;-71
2022/03/26 05:42:13;;;;;;;6.88;4.78;;;21.80;44.40;;;;;;5015594;28;20402;-71
2022/03/26 05:44:39;;;;;;;7.82;4.80;;;21.80;44.40;;;;;;5033589;28;20029;-71
2022/03/26 05:47:05;;;;;;;6.65;4.65;;;21.80;44.30;;;;;;5033395;28;20048;-71
2022/03/26 05:49:31;;;;;;;8.77;5.07;;;21.80;44.30;;;;;;5033159;28;20031;-71
2022/03/26 05:51:57;;;;;;;7.78;4.72;;;21.80;44.30;;;;;;5033080;28;20109;-71
2022/03/26 05:54:22;;;;;;;7.22;4.88;;;21.80;44.40;;;;;;5033074;28;20199;-72
2022/03/26 05:56:54;;;;;;;7.35;4.97;;;21.80;44.30;;;;;;5033186;28;20033;-72
2022/03/26 05:59:21;;;;;;;6.95;4.60;;;21.80;44.30;;;;;;5033316;28;20114;-72
2022/03/26 06:01:51;;;;;;;6.30;4.60;;;21.80;44.30;;;;;;5015335;28;20032;-71
2022/03/26 06:04:17;;;;;;;7.03;4.88;;;21.80;44.30;;;;;;5032800;28;20052;-71
2022/03/26 06:06:43;;;;;;;7.72;4.95;;;21.80;44.30;;;;;;5015342;28;20467;-72
2022/03/26 06:09:10;;;;;;;9.57;5.30;;;21.90;44.30;;;;;;5032745;28;20022;-71
2022/03/26 06:11:36;;;;;;;7.60;5.03;;;21.80;44.30;;;;;;5015528;28;20124;-72
2022/03/26 06:14:02;;;;;;;6.80;4.70;;;21.80;44.30;;;;;;5032623;28;20044;-71
2022/03/26 06:16:28;;;;;;;7.05;4.57;;;21.90;44.30;;;;;;5032845;28;20664;-71
2022/03/26 06:18:54;;;;;;;8.60;4.97;;;21.80;44.30;;;;;;5032622;28;20134;-71
2022/03/26 06:21:20;;;;;;;7.95;5.00;;;21.90;44.30;;;;;;5032911;28;20273;-71
2022/03/26 06:23:45;;;;;;;8.60;4.65;;;21.80;44.30;;;;;;5014935;28;20099;-71
2022/03/26 06:26:11;;;;;;;6.85;4.65;;;21.90;44.30;;;;;;5032602;28;20025;-71
2022/03/26 06:28:37;;;;;;;6.25;4.40;;;21.90;44.30;;;;;;5032774;28;20025;-71
2022/03/26 06:31:03;;;;;;;6.50;4.85;;;21.90;44.30;;;;;;5014832;28;20033;-71
2022/03/26 06:33:29;;;;;;;7.28;4.93;;;21.90;44.30;;;;;;4998379;28;20041;-71
2022/03/26 06:35:55;;;;;;;6.45;4.85;;;21.90;44.30;;;;;;4998572;28;20033;-71
2022/03/26 06:38:21;;;;;;;7.38;5.13;;;21.90;44.30;;;;;;5032480;28;20030;-71
2022/03/26 06:40:47;;;;;;;5.78;4.30;;;21.80;44.30;;;;;;5014482;28;20050;-71
2022/03/26 06:43:12;;;;;;;7.32;4.53;;;21.90;44.30;;;;;;5031441;28;20036;-71
2022/03/26 06:45:40;;;;;;;7.25;4.68;;;21.90;44.30;;;;;;5032307;28;20075;-71
2022/03/26 06:48:07;;;;;;;6.90;4.32;;;21.90;44.30;;;;;;5032249;28;20397;-71
2022/03/26 06:50:32;;;;;;;6.53;4.22;;;21.90;44.40;;;;;;5014533;28;20040;-71
2022/03/26 06:52:59;;;;;;;7.25;5.03;;;21.90;44.40;;;;;;5013966;28;20030;-71
2022/03/26 06:55:25;;;;;;;8.50;4.90;;;21.90;44.40;;;;;;5032065;28;20112;-72
2022/03/26 06:57:51;;;;;;;6.40;4.35;;;21.90;44.40;;;;;;5031924;28;20183;-72
2022/03/26 07:00:17;;;;;;;6.85;4.28;;;21.90;44.30;;;;;;5014207;28;20037;-72
2022/03/26 07:02:44;;;;;;;7.35;4.68;;;21.90;44.40;;;;;;5031763;28;20060;-71
2022/03/26 07:05:12;;;;;;;6.68;4.63;;;21.90;44.40;;;;;;5014301;28;20502;-72
2022/03/26 07:07:37;;;;;;;7.75;4.70;;;21.90;44.40;;;;;;4998045;28;20068;-71
2022/03/26 07:10:04;;;;;;;7.85;5.03;;;22.00;44.40;;;;;;4997597;28;20119;-71
2022/03/26 07:12:29;;;;;;;7.35;4.97;;;22.00;44.40;;;;;;5031564;28;20036;-72
2022/03/26 07:14:56;;;;;;;7.38;4.95;;;22.00;44.40;;;;;;5031635;28;20026;-71
2022/03/26 07:17:22;;;;;;;7.40;4.82;;;22.00;44.40;;;;;;5014002;28;20052;-71
2022/03/26 07:19:48;;;;;;;7.50;4.43;;;22.00;44.40;;;;;;5031540;28;20127;-71
2022/03/26 07:22:14;;;;;;;5.40;4.10;;;22.00;44.50;;;;;;5031559;28;20436;-71
2022/03/26 07:24:40;;;;;;;6.18;4.55;;;22.00;44.50;;;;;;4997490;28;20038;-71
2022/03/26 07:27:06;;;;;;;7.28;4.82;;;22.00;44.50;;;;;;5031571;28;20025;-71
2022/03/26 07:29:38;;;;;;;8.15;4.65;;;22.00;44.60;;;;;;5031351;28;20423;-72
2022/03/26 07:32:06;;;;;;;6.38;4.80;;;22.00;44.60;;;;;;5031234;28;20052;-71
2022/03/26 07:34:32;;;;;;;7.95;4.75;;;22.10;44.70;;;;;;5031433;28;20116;-72
2022/03/26 07:36:58;;;;;;;6.97;4.80;;;22.10;44.70;;;;;;5031368;28;20057;-72
2022/03/26 07:39:23;;;;;;;6.93;4.38;;;22.10;44.70;;;;;;5013436;28;20108;-72
2022/03/26 07:41:49;;;;;;;6.63;4.43;;;22.10;44.70;;;;;;5031338;28;20041;-71
2022/03/26 07:44:15;;;;;;;6.03;4.35;;;22.10;44.70;;;;;;4997318;28;20120;-72
2022/03/26 07:46:41;;;;;;;6.38;4.50;;;22.10;44.80;;;;;;5031325;28;20109;-71
2022/03/26 07:49:07;;;;;;;5.57;4.28;;;22.10;44.70;;;;;;5013446;28;20033;-71
2022/03/26 07:51:32;;;;;;;7.18;4.43;;;22.10;44.70;;;;;;5031248;28;20025;-71
2022/03/26 07:53:58;;;;;;;6.38;4.53;;;22.10;44.80;;;;;;5013181;28;20076;-72
2022/03/26 07:56:24;;;;;;;6.72;4.35;;;22.10;44.80;;;;;;5031026;28;20033;-72
2022/03/26 07:58:50;;;;;;;6.90;4.50;;;22.10;44.70;;;;;;5013425;28;20103;-71
2022/03/26 08:01:16;;;;;;;7.00;4.60;;;22.10;44.70;;;;;;5031202;28;20641;-72
2022/03/26 08:03:41;;;;;;;7.57;4.70;;;22.20;44.80;;;;;;5013524;28;20040;-72
2022/03/26 08:06:07;;;;;;;6.10;4.30;;;22.20;44.80;;;;;;5013858;28;20030;-71
2022/03/26 08:08:33;;;;;;;7.88;5.00;;;22.20;44.80;;;;;;5030879;28;20025;-71
2022/03/26 08:10:59;;;;;;;7.55;4.80;;;22.20;44.80;;;;;;5013320;28;20063;-71
2022/03/26 08:13:25;;;;;;;8.30;5.03;;;22.20;44.70;;;;;;5013155;28;20116;-72
2022/03/26 08:15:51;;;;;;;7.82;4.60;;;22.20;44.70;;;;;;5013111;28;20029;-71
2022/03/26 08:18:17;;;;;;;6.75;4.45;;;22.20;44.70;;;;;;5030977;28;20036;-71
2022/03/26 08:20:45;;;;;;;5.38;4.43;;;22.30;44.80;;;;;;5013127;28;20025;-71
2022/03/26 08:23:11;;;;;;;6.88;4.50;;;22.30;44.80;;;;;;4996713;28;20470;-71
2022/03/26 08:28:22;;;;;;;7.97;4.88;;;22.30;44.80;;;;;;5031434;28;20052;-71
2022/03/26 08:30:47;;;;;;;7.80;4.60;;;22.30;44.80;;;;;;5030770;28;20130;-71
2022/03/26 08:33:13;;;;;;;9.57;4.68;;;22.30;44.80;;;;;;5030627;28;20125;-72
2022/03/26 08:35:41;;;;;;;6.85;4.45;;;22.30;44.80;;;;;;5030870;28;20029;-72
2022/03/26 08:38:07;;;;;;;7.00;4.57;;;22.30;44.80;;;;;;5030773;28;20080;-72
2022/03/26 08:40:33;;;;;;;7.60;5.07;;;22.30;44.80;;;;;;5013015;28;20029;-71
2022/03/26 08:42:59;;;;;;;7.15;4.88;;;22.30;44.90;;;;;;5030477;28;20110;-71
2022/03/26 08:45:28;;;;;;;6.63;4.60;;;22.30;44.90;;;;;;5013455;28;20478;-72
2022/03/26 08:47:54;;;;;;;6.93;4.95;;;22.30;44.90;;;;;;5030688;28;20032;-72
2022/03/26 08:50:22;;;;;;;6.40;4.57;;;22.30;44.90;;;;;;5030656;28;20037;-71
2022/03/26 08:52:48;;;;;;;6.38;4.63;;;22.30;45.00;;;;;;5012974;28;20120;-72
2022/03/26 08:55:14;;;;;;;6.78;4.45;;;22.30;45.00;;;;;;5013425;28;20450;-72
2022/03/26 08:57:41;;;;;;;6.95;4.70;;;22.30;45.00;;;;;;5030469;28;20032;-72
2022/03/26 09:00:08;;;;;;;6.22;4.22;;;22.30;45.00;;;;;;4996618;28;20405;-71
2022/03/26 09:02:34;;;;;;;5.55;4.00;;;22.30;45.10;;;;;;5030250;28;20401;-72
2022/03/26 09:05:00;;;;;;;6.72;4.85;;;22.30;45.00;;;;;;4997806;28;20030;-71
2022/03/26 09:07:25;;;;;;;6.63;4.70;;;22.30;45.00;;;;;;5034118;28;20029;-72
2022/03/26 09:09:51;;;;;;;6.25;4.38;;;22.30;45.00;;;;;;5016434;28;20034;-71
2022/03/26 09:12:17;;;;;;;6.53;4.35;;;22.30;45.00;;;;;;5016260;28;20543;-71
2022/03/26 09:14:43;;;;;;;7.70;4.68;;;22.30;45.00;;;;;;5000041;28;20094;-72
2022/03/26 09:17:09;;;;;;;6.63;4.63;;;22.20;45.00;;;;;;5034070;28;20037;-72
2022/03/26 09:19:36;;;;;;;7.18;4.22;;;22.20;45.50;;;;;;4999949;28;20715;-72
2022/03/26 09:22:02;;;;;;;6.07;3.97;;;22.30;45.00;;;;;;5016015;28;20040;-72
2022/03/26 09:24:28;;;;;;;6.38;4.50;;;22.30;45.00;;;;;;5033657;28;20034;-72
2022/03/26 09:26:54;;;;;;;5.47;4.18;;;22.30;45.60;;;;;;5016411;28;20402;-71
2022/03/26 09:29:20;;;;;;;6.25;4.28;;;22.30;45.00;;;;;;5016090;28;20025;-72
2022/03/26 09:31:46;;;;;;;6.75;4.80;;;22.30;45.10;;;;;;5033738;28;20021;-72
2022/03/26 09:34:12;;;;;;;6.78;5.10;;;22.30;45.10;;;;;;5033543;28;20064;-72
2022/03/26 09:36:38;;;;;;;6.80;4.63;;;22.30;45.10;;;;;;5033848;28;20421;-71
2022/03/26 09:39:04;;;;;;;6.53;4.47;;;22.30;45.10;;;;;;5033339;28;20044;-72
2022/03/26 09:41:31;;;;;;;6.85;4.70;;;22.30;45.20;;;;;;5033506;28;20022;-71
2022/03/26 09:43:58;;;;;;;6.32;4.50;;;22.30;45.20;;;;;;5015476;28;20509;-72
2022/03/26 09:46:24;;;;;;;5.32;4.07;;;22.20;45.10;;;;;;5033770;28;20386;-71
2022/03/26 09:48:50;;;;;;;7.38;4.38;;;22.20;45.10;;;;;;5015764;28;20147;-72
2022/03/26 09:51:20;;;;;;;6.82;4.72;;;22.20;45.10;;;;;;5033141;28;20033;-71
2022/03/26 09:53:52;;;;;;;6.93;4.22;;;22.20;45.10;;;;;;5032950;28;20406;-72
2022/03/26 09:56:23;;;;;;;6.15;4.40;;;22.20;45.10;;;;;;5015551;28;20045;-72
2022/03/26 09:58:53;;;;;;;6.75;4.57;;;22.20;45.10;;;;;;5033083;28;20025;-72
2022/03/26 10:01:20;;;;;;;7.80;4.50;;;22.20;45.10;;;;;;5015576;28;20032;-71
2022/03/26 10:04:15;;;;;;;7.35;4.75;;;22.10;45.00;;;;;;5015406;28;20056;-72
2022/03/26 10:06:57;;;;;;;6.85;4.68;;;22.20;45.10;;;;;;5032927;28;20025;-71
2022/03/26 10:09:37;;;;;;;5.30;4.40;;;22.20;45.20;;;;;;5015203;28;20386;-71
2022/03/26 10:12:05;;;;;;;6.03;4.20;;;22.10;45.00;;;;;;5032584;28;20044;-72
2022/03/26 10:14:42;;;;;;;7.25;4.55;;;22.20;45.10;;;;;;5015434;28;20033;-71
2022/03/26 10:17:26;;;;;;;5.95;4.40;;;22.10;45.00;;;;;;5015357;28;20079;-71
2022/03/26 10:20:06;;;;;;;6.57;4.75;;;22.10;45.00;;;;;;5015179;28;20048;-72
2022/03/26 10:22:34;;;;;;;6.97;4.68;;;22.10;45.00;;;;;;5032813;28;20103;-72
2022/03/26 10:25:12;;;;;;;7.45;4.53;;;22.10;45.00;;;;;;5032739;28;20022;-72
2022/03/26 10:27:46;;;;;;;6.85;4.63;;;22.10;45.00;;;;;;5032663;28;20048;-72
2022/03/26 10:30:14;;;;;;;6.60;4.30;;;22.10;45.00;;;;;;5014875;28;20033;-71
2022/03/26 10:32:45;;;;;;;7.05;4.50;;;22.10;45.00;;;;;;5032367;28;20021;-71
2022/03/26 10:35:24;;;;;;;7.40;5.00;;;22.10;45.00;;;;;;5032456;28;20033;-72
2022/03/26 10:37:59;;;;;;;6.28;4.30;;;22.10;45.00;;;;;;5032590;28;20042;-72
2022/03/26 10:40:32;;;;;;;6.40;4.38;;;22.10;45.00;;;;;;5014798;28;20087;-72
2022/03/26 10:43:13;;;;;;;5.82;4.20;;;22.20;45.10;;;;;;5032071;28;20033;-72
2022/03/26 10:45:49;;;;;;;6.15;4.40;;;22.10;45.00;;;;;;4998541;28;20025;-72
2022/03/26 10:48:22;;;;;;;6.65;4.75;;;22.10;45.00;;;;;;4982493;28;20442;-72
2022/03/26 10:50:53;;;;;;;6.97;4.50;;;22.10;45.00;;;;;;5014582;28;20128;-72
2022/03/26 10:53:19;;;;;;;7.47;4.55;;;22.10;45.00;;;;;;5014208;28;20493;-71
2022/03/26 10:55:45;;;;;;;7.45;4.68;;;22.10;45.00;;;;;;5032094;28;20029;-71
2022/03/26 10:58:10;;;;;;;6.13;4.47;;;22.10;45.10;;;;;;5014343;28;20021;-72
2022/03/26 11:00:36;;;;;;;7.05;4.70;;;22.10;45.00;;;;;;5031848;28;20037;-72
2022/03/26 11:03:03;;;;;;;6.20;4.20;;;22.10;45.00;;;;;;5031790;28;20026;-72
2022/03/26 11:05:30;;;;;;;7.63;4.78;;;22.10;45.00;;;;;;5031993;28;20516;-72
2022/03/26 11:07:57;;;;;;;7.20;4.75;;;22.10;45.00;;;;;;4998009;28;20029;-72
2022/03/26 11:10:25;;;;;;;7.00;4.43;;;22.10;45.00;;;;;;5014168;28;20033;-72
2022/03/26 11:12:52;;;;;;;6.28;4.40;;;22.10;45.00;;;;;;5014189;28;20144;-72
2022/03/26 11:15:28;;;;;;;6.55;4.57;;;22.10;45.00;;;;;;5031834;28;20478;-72
2022/03/26 11:18:13;;;;;;;5.15;3.90;;;22.10;45.00;;;;;;4997804;28;20057;-72
2022/03/26 11:20:55;;;;;;;6.68;4.63;;;22.10;45.10;;;;;;5031459;28;20079;-72
2022/03/26 11:23:29;;;;;;;5.00;3.88;;;22.10;45.10;;;;;;5031431;28;20025;-72
2022/03/26 11:26:09;;;;;;;7.22;4.35;;;22.10;45.10;;;;;;5031600;28;20045;-72
2022/03/26 11:29:07;;;;;;;5.93;4.15;;;22.10;45.00;;;;;;5031372;28;20034;-72
2022/03/26 11:31:32;;;;;;;9.25;4.45;;;22.10;45.00;;;;;;5031610;28;20397;-72
2022/03/26 11:34:05;;;;;;;6.32;4.63;;;22.10;45.00;;;;;;5031197;28;20075;-72
2022/03/26 11:36:32;;;;;;;6.60;4.65;;;22.00;45.00;;;;;;4997548;28;20108;-72
2022/03/26 11:39:12;;;;;;;6.43;4.53;;;22.10;45.10;;;;;;4997186;28;20029;-72
2022/03/26 11:41:39;;;;;;;5.75;4.03;;;22.10;45.10;;;;;;5013533;28;20034;-72
2022/03/26 11:44:07;;;;;;;6.95;4.63;;;22.10;45.00;;;;;;5013406;28;20025;-72
2022/03/26 11:52:24;;;;;;;7.28;4.72;;;22.10;45.00;;;;;;5013318;28;20029;-72
2022/03/26 11:55:01;;;;;;;8.38;4.43;;;22.10;45.00;;;;;;5013600;28;20032;-72
2022/03/26 11:57:28;;;;;;;8.00;4.55;;;22.10;45.00;;;;;;5013462;28;20034;-72
2022/03/26 11:59:54;;;;;;;6.45;4.50;;;22.10;45.00;;;;;;5031119;28;20029;-72
2022/03/26 12:02:23;;;;;;;6.20;4.38;;;22.10;45.00;;;;;;5013087;28;20425;-72
2022/03/26 12:04:53;;;;;;;6.63;4.50;;;22.10;45.10;;;;;;5031238;28;20042;-72
2022/03/26 12:07:21;;;;;;;6.68;4.50;;;22.10;45.10;;;;;;5031109;28;20283;-72
2022/03/26 12:10:02;;;;;;;6.85;4.43;;;22.10;45.00;;;;;;5031010;28;20398;-72
2022/03/26 12:13:02;;;;;;;5.70;4.15;;;22.10;45.10;;;;;;5013153;28;20029;-73
2022/03/26 12:15:30;;;;;;;6.72;4.55;;;22.10;45.10;;;;;;5013534;28;20482;-72
2022/03/26 12:18:10;;;;;;;6.38;4.43;;;22.10;45.10;;;;;;5031022;28;20040;-72
2022/03/26 12:20:46;;;;;;;;;;;22.10;45.10;;;;;;5031488;28;20419;-72
2022/03/26 12:23:23;;;;;;;6.47;4.20;;;22.00;45.00;;;;;;5030499;28;19909;-72
2022/03/26 12:26:08;;;;;;;5.88;4.15;;;22.10;45.10;;;;;;5031007;28;20489;-72
2022/03/26 12:28:35;;;;;;;6.18;4.40;;;22.10;45.10;;;;;;5030807;28;20029;-72
2022/03/26 12:31:04;;;;;;;7.07;4.65;;;22.00;45.10;;;;;;5013219;28;20041;-72
2022/03/26 12:33:40;;;;;;;7.13;4.57;;;22.10;45.10;;;;;;5030471;28;20440;-72
2022/03/26 12:36:07;;;;;;;5.40;4.07;;;22.10;45.10;;;;;;5030778;28;20050;-72
2022/03/26 12:38:33;;;;;;;7.75;4.68;;;22.10;45.10;;;;;;5030662;28;20029;-72
2022/03/26 12:41:01;;;;;;;7.00;4.40;;;22.10;45.70;;;;;;5033439;28;20112;-72
2022/03/26 12:43:27;;;;;;;8.00;4.53;;;22.10;45.20;;;;;;5034280;28;20469;-72
2022/03/26 12:45:55;;;;;;;5.72;4.15;;;22.00;45.10;;;;;;5034671;28;20524;-72
2022/03/26 12:48:23;;;;;;;6.80;4.30;;;22.00;45.10;;;;;;5034741;28;20049;-72
2022/03/26 12:50:49;;;;;;;7.07;4.32;;;22.10;45.10;;;;;;5017070;28;20120;-73
2022/03/26 12:53:17;;;;;;;6.07;4.38;;;22.00;45.10;;;;;;5034069;28;20044;-72
2022/03/26 12:55:54;;;;;;;6.55;4.45;;;22.10;45.10;;;;;;5034423;28;20503;-73
2022/03/26 13:01:09;;;;;;;7.18;4.88;;;22.10;45.10;;;;;;5016538;28;20032;-72